createdAt,value
2019-01-08T00:27:18.035Z,12.40
2019-01-08T00:57:24.652Z,20.07
2019-01-08T01:27:31.321Z,20.43
2019-01-08T01:57:37.899Z,43.40
2019-01-08T02:27:44.248Z,16.20
2019-01-08T02:57:50.754Z,19.13
2019-01-08T03:27:57.280Z,25.53
2019-01-08T03:58:04.169Z,13.83
2019-01-08T04:28:10.529Z,11.60
2019-01-08T04:58:17.101Z,18.40
2019-01-08T05:28:23.424Z,29.43
2019-01-08T05:58:29.987Z,32.17
2019-01-08T06:28:36.340Z,31.17
2019-01-08T06:58:42.747Z,35.90
2019-01-08T07:28:49.217Z,60.73
2019-01-08T07:58:55.579Z,37.43
2019-01-08T08:29:01.937Z,32.87
2019-01-08T08:59:08.308Z,39.73
2019-01-08T09:29:14.695Z,52.70
2019-01-08T09:59:21.201Z,34.97
2019-01-08T10:29:27.593Z,26.57
2019-01-08T10:59:34.068Z,27.20
2019-01-08T11:29:40.442Z,38.67
2019-01-08T11:59:48.228Z,45.97
2019-01-08T12:29:55.007Z,13.17
2019-01-08T13:00:01.509Z,30.27
2019-01-08T13:30:08.515Z,27.10
2019-01-08T14:00:16.137Z,23.75
2019-01-08T14:30:22.877Z,3.62
2019-01-08T15:00:29.636Z,8.40
2019-01-08T15:30:35.982Z,2.23
2019-01-08T16:00:42.492Z,5.20
2019-01-08T16:30:48.874Z,4.50
2019-01-08T17:00:59.059Z,4.67
2019-01-08T17:31:05.430Z,2.17
2019-01-08T18:01:13.406Z,5.87
2019-01-08T18:31:20.090Z,15.10
2019-01-08T19:01:26.640Z,12.13
2019-01-08T19:31:33.472Z,7.43
2019-01-08T20:01:39.817Z,6.53
2019-01-08T20:31:46.450Z,10.53
2019-01-08T21:01:53.180Z,9.77
2019-01-08T21:32:00.698Z,12.90
2019-01-08T22:02:09.660Z,12.17
2019-01-08T22:32:15.887Z,23.40
2019-01-08T23:02:22.775Z,14.43
2019-01-08T23:32:29.433Z,12.00
